sensor_id;sensor_type;location;lat;lon;timestamp;pressure;altitude;pressure_sealevel;temperature;humidity
63009;BME280;49099;28.428;-16.488;2023-06-19T00:01:25;98614.34;;;23.91;66.37
63009;BME280;49099;28.428;-16.488;2023-06-19T00:03:52;98610.75;;;23.87;66.20
63009;BME280;49099;28.428;-16.488;2023-06-19T00:06:19;98614.16;;;23.84;66.58
63009;BME280;49099;28.428;-16.488;2023-06-19T00:08:47;98607.16;;;23.83;66.11
63009;BME280;49099;28.428;-16.488;2023-06-19T00:11:14;98593.34;;;23.88;66.05
63009;BME280;49099;28.428;-16.488;2023-06-19T00:13:41;98588.38;;;23.90;66.44
63009;BME280;49099;28.428;-16.488;2023-06-19T00:16:08;98579.72;;;23.84;66.31
63009;BME280;49099;28.428;-16.488;2023-06-19T00:18:36;98584.09;;;23.89;66.47
63009;BME280;49099;28.428;-16.488;2023-06-19T00:21:08;98581.84;;;23.91;66.58
63009;BME280;49099;28.428;-16.488;2023-06-19T00:23:36;98576.41;;;23.91;66.65
63009;BME280;49099;28.428;-16.488;2023-06-19T00:26:03;98567.41;;;23.87;66.89
63009;BME280;49099;28.428;-16.488;2023-06-19T00:28:30;98565.22;;;23.93;66.26
63009;BME280;49099;28.428;-16.488;2023-06-19T00:30:58;98566.91;;;23.97;66.36
63009;BME280;49099;28.428;-16.488;2023-06-19T00:33:25;98561.91;;;23.99;66.15
63009;BME280;49099;28.428;-16.488;2023-06-19T00:35:52;98556.19;;;24.04;65.76
63009;BME280;49099;28.428;-16.488;2023-06-19T00:38:21;98566.34;;;24.07;65.75
63009;BME280;49099;28.428;-16.488;2023-06-19T00:40:48;98553.94;;;24.06;65.43
63009;BME280;49099;28.428;-16.488;2023-06-19T00:43:15;98553.22;;;24.09;64.79
63009;BME280;49099;28.428;-16.488;2023-06-19T00:45:42;98550.94;;;24.11;63.93
63009;BME280;49099;28.428;-16.488;2023-06-19T00:48:10;98543.97;;;24.10;62.94
63009;BME280;49099;28.428;-16.488;2023-06-19T00:50:37;98538.38;;;24.03;62.71
63009;BME280;49099;28.428;-16.488;2023-06-19T00:53:04;98545.84;;;23.90;61.89
63009;BME280;49099;28.428;-16.488;2023-06-19T00:55:32;98539.97;;;23.73;61.25
63009;BME280;49099;28.428;-16.488;2023-06-19T00:58:00;98536.81;;;23.71;61.15
63009;BME280;49099;28.428;-16.488;2023-06-19T01:00:28;98528.16;;;23.65;60.84
63009;BME280;49099;28.428;-16.488;2023-06-19T01:02:55;98529.22;;;23.60;60.39
63009;BME280;49099;28.428;-16.488;2023-06-19T01:05:22;98513.56;;;23.54;60.18
63009;BME280;49099;28.428;-16.488;2023-06-19T01:08:10;98512.34;;;23.51;59.68
63009;BME280;49099;28.428;-16.488;2023-06-19T01:10:47;98509.81;;;23.43;60.12
63009;BME280;49099;28.428;-16.488;2023-06-19T01:13:47;98500.44;;;23.40;59.97
63009;BME280;49099;28.428;-16.488;2023-06-19T01:16:16;98493.47;;;23.39;59.93
63009;BME280;49099;28.428;-16.488;2023-06-19T01:18:44;98488.03;;;23.39;59.88
63009;BME280;49099;28.428;-16.488;2023-06-19T01:21:16;98484.03;;;23.33;59.58
63009;BME280;49099;28.428;-16.488;2023-06-19T01:23:44;98480.69;;;23.24;59.68
63009;BME280;49099;28.428;-16.488;2023-06-19T01:26:12;98486.34;;;23.19;59.48
63009;BME280;49099;28.428;-16.488;2023-06-19T01:28:42;98475.81;;;23.14;58.65
63009;BME280;49099;28.428;-16.488;2023-06-19T01:31:22;98473.34;;;23.08;57.67
63009;BME280;49099;28.428;-16.488;2023-06-19T01:33:53;98471.78;;;23.07;57.59
63009;BME280;49099;28.428;-16.488;2023-06-19T01:36:23;98477.25;;;23.11;57.60
63009;BME280;49099;28.428;-16.488;2023-06-19T01:38:51;98464.97;;;23.14;57.09
63009;BME280;49099;28.428;-16.488;2023-06-19T01:41:22;98465.84;;;23.18;56.72
63009;BME280;49099;28.428;-16.488;2023-06-19T01:43:51;98469.00;;;23.20;56.63
63009;BME280;49099;28.428;-16.488;2023-06-19T01:46:18;98451.88;;;23.16;56.30
63009;BME280;49099;28.428;-16.488;2023-06-19T01:48:46;98448.81;;;23.17;56.10
63009;BME280;49099;28.428;-16.488;2023-06-19T01:51:13;98449.78;;;23.25;55.84
63009;BME280;49099;28.428;-16.488;2023-06-19T01:53:40;98444.84;;;23.27;55.63
63009;BME280;49099;28.428;-16.488;2023-06-19T01:56:08;98446.31;;;23.24;55.42
63009;BME280;49099;28.428;-16.488;2023-06-19T01:58:35;98431.81;;;23.17;55.11
63009;BME280;49099;28.428;-16.488;2023-06-19T02:01:02;98438.78;;;23.18;55.20
63009;BME280;49099;28.428;-16.488;2023-06-19T02:03:29;98434.50;;;23.17;55.21
63009;BME280;49099;28.428;-16.488;2023-06-19T02:05:56;98430.16;;;23.12;55.57
63009;BME280;49099;28.428;-16.488;2023-06-19T02:08:23;98429.53;;;23.19;55.39
63009;BME280;49099;28.428;-16.488;2023-06-19T02:10:51;98430.66;;;23.18;55.34
63009;BME280;49099;28.428;-16.488;2023-06-19T02:13:18;98433.66;;;23.28;54.95
63009;BME280;49099;28.428;-16.488;2023-06-19T02:15:45;98437.34;;;23.36;54.36
63009;BME280;49099;28.428;-16.488;2023-06-19T02:18:12;98427.91;;;23.46;54.35
63009;BME280;49099;28.428;-16.488;2023-06-19T02:20:39;98438.19;;;23.56;53.71
63009;BME280;49099;28.428;-16.488;2023-06-19T02:23:06;98432.19;;;23.62;54.02
63009;BME280;49099;28.428;-16.488;2023-06-19T02:25:33;98441.19;;;23.67;53.72
63009;BME280;49099;28.428;-16.488;2023-06-19T02:28:02;98433.06;;;23.67;53.89
63009;BME280;49099;28.428;-16.488;2023-06-19T02:30:30;98438.19;;;23.72;54.18
63009;BME280;49099;28.428;-16.488;2023-06-19T02:32:57;98431.72;;;23.76;54.07
63009;BME280;49099;28.428;-16.488;2023-06-19T02:35:24;98416.69;;;23.79;54.26
63009;BME280;49099;28.428;-16.488;2023-06-19T02:37:51;98423.41;;;23.85;53.45
63009;BME280;49099;28.428;-16.488;2023-06-19T02:40:19;98421.69;;;23.77;53.51
63009;BME280;49099;28.428;-16.488;2023-06-19T02:42:46;98424.22;;;23.70;53.24
63009;BME280;49099;28.428;-16.488;2023-06-19T02:45:13;98423.63;;;23.60;53.58
63009;BME280;49099;28.428;-16.488;2023-06-19T02:47:40;98425.00;;;23.54;53.61
63009;BME280;49099;28.428;-16.488;2023-06-19T02:50:08;98421.94;;;23.56;53.67
63009;BME280;49099;28.428;-16.488;2023-06-19T02:52:35;98408.41;;;23.56;53.91
63009;BME280;49099;28.428;-16.488;2023-06-19T02:55:03;98416.38;;;23.65;53.46
63009;BME280;49099;28.428;-16.488;2023-06-19T02:57:30;98409.13;;;23.69;53.32
63009;BME280;49099;28.428;-16.488;2023-06-19T02:59:57;98409.13;;;23.69;53.50
63009;BME280;49099;28.428;-16.488;2023-06-19T03:02:24;98410.69;;;23.70;53.86
63009;BME280;49099;28.428;-16.488;2023-06-19T03:04:52;98409.03;;;23.65;53.74
63009;BME280;49099;28.428;-16.488;2023-06-19T03:07:19;98406.31;;;23.65;53.33
63009;BME280;49099;28.428;-16.488;2023-06-19T03:09:46;98405.09;;;23.62;52.75
63009;BME280;49099;28.428;-16.488;2023-06-19T03:12:14;98403.53;;;23.61;53.20
63009;BME280;49099;28.428;-16.488;2023-06-19T03:14:41;98401.97;;;23.60;52.67
63009;BME280;49099;28.428;-16.488;2023-06-19T03:17:08;98400.38;;;23.59;51.77
63009;BME280;49099;28.428;-16.488;2023-06-19T03:19:35;98388.75;;;23.59;52.13
63009;BME280;49099;28.428;-16.488;2023-06-19T03:22:02;98393.84;;;23.60;52.36
63009;BME280;49099;28.428;-16.488;2023-06-19T03:24:30;98391.94;;;23.61;51.66
63009;BME280;49099;28.428;-16.488;2023-06-19T03:26:57;98395.66;;;23.56;51.61
63009;BME280;49099;28.428;-16.488;2023-06-19T03:29:24;98395.59;;;23.53;52.77
63009;BME280;49099;28.428;-16.488;2023-06-19T03:31:51;98398.19;;;23.49;53.30
63009;BME280;49099;28.428;-16.488;2023-06-19T03:34:18;98391.56;;;23.47;52.26
63009;BME280;49099;28.428;-16.488;2023-06-19T03:36:45;98386.94;;;23.47;53.11
63009;BME280;49099;28.428;-16.488;2023-06-19T03:39:13;98393.06;;;23.44;53.16
63009;BME280;49099;28.428;-16.488;2023-06-19T03:41:40;98389.22;;;23.45;53.37
63009;BME280;49099;28.428;-16.488;2023-06-19T03:44:08;98381.44;;;23.44;53.48
63009;BME280;49099;28.428;-16.488;2023-06-19T03:46:35;98384.47;;;23.42;54.21
63009;BME280;49099;28.428;-16.488;2023-06-19T03:49:02;98387.19;;;23.42;55.45
63009;BME280;49099;28.428;-16.488;2023-06-19T03:51:32;98386.75;;;23.40;55.87
63009;BME280;49099;28.428;-16.488;2023-06-19T03:53:59;98386.06;;;23.43;55.55
63009;BME280;49099;28.428;-16.488;2023-06-19T03:56:27;98389.56;;;23.44;55.09
63009;BME280;49099;28.428;-16.488;2023-06-19T03:58:54;98387.66;;;23.44;54.80
63009;BME280;49099;28.428;-16.488;2023-06-19T04:01:21;98391.13;;;23.45;54.89
63009;BME280;49099;28.428;-16.488;2023-06-19T04:03:49;98391.81;;;23.42;56.20
63009;BME280;49099;28.428;-16.488;2023-06-19T04:06:16;98394.88;;;23.40;57.20
63009;BME280;49099;28.428;-16.488;2023-06-19T04:08:43;98385.63;;;23.41;57.73
63009;BME280;49099;28.428;-16.488;2023-06-19T04:11:10;98390.59;;;23.39;56.55
63009;BME280;49099;28.428;-16.488;2023-06-19T04:13:37;98389.75;;;23.35;56.14
63009;BME280;49099;28.428;-16.488;2023-06-19T04:16:04;98389.59;;;23.28;55.56
63009;BME280;49099;28.428;-16.488;2023-06-19T04:18:31;98390.97;;;23.22;55.05
63009;BME280;49099;28.428;-16.488;2023-06-19T04:20:59;98389.41;;;23.21;54.98
63009;BME280;49099;28.428;-16.488;2023-06-19T04:23:26;98388.88;;;23.15;54.61
63009;BME280;49099;28.428;-16.488;2023-06-19T04:25:53;98378.59;;;23.05;54.70
63009;BME280;49099;28.428;-16.488;2023-06-19T04:28:20;98384.34;;;23.03;54.86
63009;BME280;49099;28.428;-16.488;2023-06-19T04:30:47;98381.19;;;23.01;54.86
63009;BME280;49099;28.428;-16.488;2023-06-19T04:33:15;98385.03;;;23.00;54.70
63009;BME280;49099;28.428;-16.488;2023-06-19T04:35:42;98379.63;;;23.00;54.59
63009;BME280;49099;28.428;-16.488;2023-06-19T04:38:09;98376.22;;;23.03;54.79
63009;BME280;49099;28.428;-16.488;2023-06-19T04:40:36;98382.06;;;23.05;54.84
63009;BME280;49099;28.428;-16.488;2023-06-19T04:43:04;98379.00;;;23.07;55.04
63009;BME280;49099;28.428;-16.488;2023-06-19T04:45:32;98368.00;;;23.00;54.73
63009;BME280;49099;28.428;-16.488;2023-06-19T04:47:59;98375.16;;;23.08;54.91
63009;BME280;49099;28.428;-16.488;2023-06-19T04:50:30;98382.94;;;23.10;54.78
63009;BME280;49099;28.428;-16.488;2023-06-19T04:52:58;98375.94;;;23.08;54.22
63009;BME280;49099;28.428;-16.488;2023-06-19T04:55:26;98373.53;;;23.03;54.25
63009;BME280;49099;28.428;-16.488;2023-06-19T04:57:53;98368.44;;;23.02;54.36
63009;BME280;49099;28.428;-16.488;2023-06-19T05:00:20;98364.16;;;23.01;54.34
63009;BME280;49099;28.428;-16.488;2023-06-19T05:02:50;98364.69;;;23.06;54.86
63009;BME280;49099;28.428;-16.488;2023-06-19T05:05:17;98366.63;;;23.06;54.46
63009;BME280;49099;28.428;-16.488;2023-06-19T05:07:48;98358.16;;;23.07;54.47
63009;BME280;49099;28.428;-16.488;2023-06-19T05:10:16;98365.13;;;23.08;54.48
63009;BME280;49099;28.428;-16.488;2023-06-19T05:12:43;98362.00;;;23.06;53.88
63009;BME280;49099;28.428;-16.488;2023-06-19T05:15:13;98363.91;;;23.06;53.84
63009;BME280;49099;28.428;-16.488;2023-06-19T05:17:41;98362.00;;;23.06;54.14
63009;BME280;49099;28.428;-16.488;2023-06-19T05:20:09;98362.78;;;23.07;54.11
63009;BME280;49099;28.428;-16.488;2023-06-19T05:22:36;98370.13;;;23.06;54.20
63009;BME280;49099;28.428;-16.488;2023-06-19T05:25:04;98375.28;;;23.12;54.25
63009;BME280;49099;28.428;-16.488;2023-06-19T05:27:31;98373.34;;;23.12;54.06
63009;BME280;49099;28.428;-16.488;2023-06-19T05:29:58;98366.00;;;23.13;54.07
63009;BME280;49099;28.428;-16.488;2023-06-19T05:32:25;98362.06;;;23.10;54.07
63009;BME280;49099;28.428;-16.488;2023-06-19T05:34:53;98363.31;;;23.13;54.01
63009;BME280;49099;28.428;-16.488;2023-06-19T05:37:20;98374.13;;;23.13;53.79
63009;BME280;49099;28.428;-16.488;2023-06-19T05:39:49;98364.00;;;23.10;54.20
63009;BME280;49099;28.428;-16.488;2023-06-19T05:42:16;98366.69;;;23.10;54.39
63009;BME280;49099;28.428;-16.488;2023-06-19T05:44:43;98376.84;;;23.13;54.74
63009;BME280;49099;28.428;-16.488;2023-06-19T05:47:10;98377.53;;;23.10;54.75
63009;BME280;49099;28.428;-16.488;2023-06-19T05:49:38;98379.78;;;23.07;54.67
63009;BME280;49099;28.428;-16.488;2023-06-19T05:52:08;98386.88;;;23.12;54.43
63009;BME280;49099;28.428;-16.488;2023-06-19T05:54:35;98382.50;;;23.07;54.53
63009;BME280;49099;28.428;-16.488;2023-06-19T05:57:02;98388.69;;;23.08;54.45
63009;BME280;49099;28.428;-16.488;2023-06-19T05:59:29;98387.91;;;23.07;54.75
63009;BME280;49099;28.428;-16.488;2023-06-19T06:01:56;98388.16;;;23.02;54.81
63009;BME280;49099;28.428;-16.488;2023-06-19T06:04:23;98395.16;;;23.03;55.13
63009;BME280;49099;28.428;-16.488;2023-06-19T06:06:50;98392.88;;;23.05;55.21
63009;BME280;49099;28.428;-16.488;2023-06-19T06:09:18;98394.09;;;23.08;55.21
63009;BME280;49099;28.428;-16.488;2023-06-19T06:11:45;98399.09;;;23.06;55.55
63009;BME280;49099;28.428;-16.488;2023-06-19T06:14:13;98397.06;;;23.03;55.33
63009;BME280;49099;28.428;-16.488;2023-06-19T06:16:40;98397.50;;;23.05;55.33
63009;BME280;49099;28.428;-16.488;2023-06-19T06:19:07;98402.16;;;23.04;55.30
63009;BME280;49099;28.428;-16.488;2023-06-19T06:21:34;98398.66;;;23.04;55.37
63009;BME280;49099;28.428;-16.488;2023-06-19T06:24:02;98405.53;;;23.01;55.24
63009;BME280;49099;28.428;-16.488;2023-06-19T06:26:29;98411.41;;;23.03;55.31
63009;BME280;49099;28.428;-16.488;2023-06-19T06:28:56;98408.94;;;22.98;55.36
63009;BME280;49099;28.428;-16.488;2023-06-19T06:31:23;98409.28;;;22.97;55.19
63009;BME280;49099;28.428;-16.488;2023-06-19T06:33:51;98407.38;;;22.97;55.23
63009;BME280;49099;28.428;-16.488;2023-06-19T06:36:18;98408.16;;;22.98;55.18
63009;BME280;49099;28.428;-16.488;2023-06-19T06:39:01;98410.84;;;22.98;55.26
63009;BME280;49099;28.428;-16.488;2023-06-19T06:41:28;98412.78;;;22.97;55.00
63009;BME280;49099;28.428;-16.488;2023-06-19T06:43:55;98419.41;;;23.00;55.18
63009;BME280;49099;28.428;-16.488;2023-06-19T06:46:22;98415.91;;;22.99;55.47
63009;BME280;49099;28.428;-16.488;2023-06-19T06:48:50;98414.44;;;23.02;55.41
63009;BME280;49099;28.428;-16.488;2023-06-19T06:51:17;98425.34;;;23.05;55.58
63009;BME280;49099;28.428;-16.488;2023-06-19T06:53:44;98423.06;;;23.07;55.13
63009;BME280;49099;28.428;-16.488;2023-06-19T06:56:11;98425.06;;;23.11;55.13
63009;BME280;49099;28.428;-16.488;2023-06-19T06:58:39;98427.09;;;23.14;55.19
63009;BME280;49099;28.428;-16.488;2023-06-19T07:01:06;98434.50;;;23.17;55.27
63009;BME280;49099;28.428;-16.488;2023-06-19T07:03:33;98433.47;;;23.21;55.28
63009;BME280;49099;28.428;-16.488;2023-06-19T07:06:01;98443.59;;;23.24;55.23
63009;BME280;49099;28.428;-16.488;2023-06-19T07:08:29;98441.00;;;23.28;55.40
63009;BME280;49099;28.428;-16.488;2023-06-19T07:10:57;98443.00;;;23.31;56.45
63009;BME280;49099;28.428;-16.488;2023-06-19T07:13:24;98435.31;;;23.33;56.71
63009;BME280;49099;28.428;-16.488;2023-06-19T07:15:52;98443.16;;;23.38;57.77
63009;BME280;49099;28.428;-16.488;2023-06-19T07:18:19;98447.19;;;23.44;58.48
63009;BME280;49099;28.428;-16.488;2023-06-19T07:20:46;98454.25;;;23.49;57.58
63009;BME280;49099;28.428;-16.488;2023-06-19T07:23:14;98448.06;;;23.48;59.43
63009;BME280;49099;28.428;-16.488;2023-06-19T07:25:41;98437.94;;;23.45;60.30
63009;BME280;49099;28.428;-16.488;2023-06-19T07:28:08;98450.06;;;23.51;59.68
63009;BME280;49099;28.428;-16.488;2023-06-19T07:30:35;98446.66;;;23.54;58.82
63009;BME280;49099;28.428;-16.488;2023-06-19T07:33:02;98453.63;;;23.55;60.81
63009;BME280;49099;28.428;-16.488;2023-06-19T07:35:30;98449.78;;;23.56;60.42
63009;BME280;49099;28.428;-16.488;2023-06-19T07:37:57;98448.22;;;23.55;60.28
63009;BME280;49099;28.428;-16.488;2023-06-19T07:40:24;98448.78;;;23.61;57.95
63009;BME280;49099;28.428;-16.488;2023-06-19T07:42:52;98448.44;;;23.62;56.57
63009;BME280;49099;28.428;-16.488;2023-06-19T07:45:19;98450.00;;;23.63;55.45
63009;BME280;49099;28.428;-16.488;2023-06-19T07:47:56;98454.63;;;23.63;54.79
63009;BME280;49099;28.428;-16.488;2023-06-19T07:50:24;98458.47;;;23.62;54.75
63009;BME280;49099;28.428;-16.488;2023-06-19T07:52:53;98450.34;;;23.62;55.11
63009;BME280;49099;28.428;-16.488;2023-06-19T07:55:20;98458.84;;;23.60;53.87
63009;BME280;49099;28.428;-16.488;2023-06-19T07:57:48;98459.34;;;23.66;55.13
63009;BME280;49099;28.428;-16.488;2023-06-19T08:00:15;98457.75;;;23.65;55.49
63009;BME280;49099;28.428;-16.488;2023-06-19T08:02:42;98461.72;;;23.68;55.96
63009;BME280;49099;28.428;-16.488;2023-06-19T08:05:10;98468.75;;;23.72;58.05
63009;BME280;49099;28.428;-16.488;2023-06-19T08:07:38;98466.16;;;23.76;58.90
63009;BME280;49099;28.428;-16.488;2023-06-19T08:10:05;98476.03;;;23.84;59.70
63009;BME280;49099;28.428;-16.488;2023-06-19T08:12:53;98479.56;;;23.88;59.82
63009;BME280;49099;28.428;-16.488;2023-06-19T08:15:20;98482.28;;;23.88;58.77
63009;BME280;49099;28.428;-16.488;2023-06-19T08:17:47;98483.00;;;23.85;59.46
63009;BME280;49099;28.428;-16.488;2023-06-19T08:20:15;98490.00;;;23.86;59.55
63009;BME280;49099;28.428;-16.488;2023-06-19T08:22:42;98484.16;;;23.84;56.43
63009;BME280;49099;28.428;-16.488;2023-06-19T08:25:09;98492.69;;;23.86;58.36
63009;BME280;49099;28.428;-16.488;2023-06-19T08:27:37;98496.28;;;23.90;61.77
63009;BME280;49099;28.428;-16.488;2023-06-19T08:30:04;98500.28;;;23.96;62.22
63009;BME280;49099;28.428;-16.488;2023-06-19T08:32:32;98505.00;;;23.99;61.57
63009;BME280;49099;28.428;-16.488;2023-06-19T08:35:01;98506.31;;;24.05;61.35
63009;BME280;49099;28.428;-16.488;2023-06-19T08:37:30;98500.00;;;24.17;60.37
63009;BME280;49099;28.428;-16.488;2023-06-19T08:39:57;98506.91;;;24.14;58.73
63009;BME280;49099;28.428;-16.488;2023-06-19T08:42:24;98505.75;;;24.15;57.85
63009;BME280;49099;28.428;-16.488;2023-06-19T08:44:51;98506.81;;;24.11;59.61
63009;BME280;49099;28.428;-16.488;2023-06-19T08:47:19;98513.91;;;24.15;59.17
63009;BME280;49099;28.428;-16.488;2023-06-19T08:49:46;98512.94;;;24.08;59.59
63009;BME280;49099;28.428;-16.488;2023-06-19T08:52:13;98511.44;;;24.10;60.42
63009;BME280;49099;28.428;-16.488;2023-06-19T08:54:40;98511.38;;;24.07;60.21
63009;BME280;49099;28.428;-16.488;2023-06-19T08:57:11;98510.03;;;24.16;60.30
63009;BME280;49099;28.428;-16.488;2023-06-19T08:59:39;98506.00;;;24.26;59.59
63009;BME280;49099;28.428;-16.488;2023-06-19T09:02:06;98512.03;;;24.35;59.35
63009;BME280;49099;28.428;-16.488;2023-06-19T09:04:34;98508.69;;;24.42;59.24
63009;BME280;49099;28.428;-16.488;2023-06-19T09:07:03;98512.28;;;24.46;59.63
63009;BME280;49099;28.428;-16.488;2023-06-19T09:09:30;98511.91;;;24.48;59.45
63009;BME280;49099;28.428;-16.488;2023-06-19T09:14:38;98508.72;;;24.61;59.17
63009;BME280;49099;28.428;-16.488;2023-06-19T09:17:07;98508.09;;;24.68;59.26
63009;BME280;49099;28.428;-16.488;2023-06-19T09:19:38;98516.72;;;24.73;58.62
63009;BME280;49099;28.428;-16.488;2023-06-19T09:22:13;98507.00;;;24.72;59.32
63009;BME280;49099;28.428;-16.488;2023-06-19T09:24:45;98507.41;;;24.74;58.71
63009;BME280;49099;28.428;-16.488;2023-06-19T09:27:14;98499.75;;;24.77;56.27
63009;BME280;49099;28.428;-16.488;2023-06-19T09:29:44;98506.56;;;24.90;56.69
63009;BME280;49099;28.428;-16.488;2023-06-19T09:32:22;98499.44;;;25.01;55.18
63009;BME280;49099;28.428;-16.488;2023-06-19T09:34:52;98495.88;;;25.16;55.35
63009;BME280;49099;28.428;-16.488;2023-06-19T09:37:27;98503.00;;;25.24;53.59
63009;BME280;49099;28.428;-16.488;2023-06-19T09:40:00;98506.25;;;25.34;52.90
63009;BME280;49099;28.428;-16.488;2023-06-19T09:42:31;98500.91;;;25.37;51.75
63009;BME280;49099;28.428;-16.488;2023-06-19T09:45:10;98503.38;;;25.46;51.45
63009;BME280;49099;28.428;-16.488;2023-06-19T09:47:42;98493.84;;;25.55;50.65
63009;BME280;49099;28.428;-16.488;2023-06-19T09:50:15;98495.88;;;25.62;51.19
63009;BME280;49099;28.428;-16.488;2023-06-19T09:52:44;98494.75;;;25.63;49.97
63009;BME280;49099;28.428;-16.488;2023-06-19T09:55:12;98500.16;;;25.63;49.58
63009;BME280;49099;28.428;-16.488;2023-06-19T09:57:41;98499.75;;;25.61;51.46
63009;BME280;49099;28.428;-16.488;2023-06-19T10:00:09;98511.16;;;25.47;59.34
63009;BME280;49099;28.428;-16.488;2023-06-19T10:02:47;98511.69;;;25.34;60.68
63009;BME280;49099;28.428;-16.488;2023-06-19T10:05:15;98512.28;;;25.23;60.46
63009;BME280;49099;28.428;-16.488;2023-06-19T10:07:44;98511.38;;;25.16;61.41
63009;BME280;49099;28.428;-16.488;2023-06-19T10:10:23;98505.94;;;25.16;60.36
63009;BME280;49099;28.428;-16.488;2023-06-19T10:12:54;98501.28;;;25.16;60.78
63009;BME280;49099;28.428;-16.488;2023-06-19T10:15:24;98510.34;;;25.24;61.92
63009;BME280;49099;28.428;-16.488;2023-06-19T10:18:03;98507.28;;;25.25;62.01
63009;BME280;49099;28.428;-16.488;2023-06-19T10:20:32;98517.72;;;25.23;60.67
63009;BME280;49099;28.428;-16.488;2023-06-19T10:23:05;98508.47;;;25.28;57.49
63009;BME280;49099;28.428;-16.488;2023-06-19T10:25:35;98507.03;;;25.34;56.18
63009;BME280;49099;28.428;-16.488;2023-06-19T10:28:03;98509.50;;;25.43;55.37
63009;BME280;49099;28.428;-16.488;2023-06-19T10:30:33;98519.44;;;25.54;55.71
63009;BME280;49099;28.428;-16.488;2023-06-19T10:33:01;98515.19;;;25.57;56.36
63009;BME280;49099;28.428;-16.488;2023-06-19T10:35:38;98514.91;;;25.62;55.01
63009;BME280;49099;28.428;-16.488;2023-06-19T10:38:07;98514.56;;;25.67;57.08
63009;BME280;49099;28.428;-16.488;2023-06-19T10:40:36;98515.31;;;25.64;59.68
63009;BME280;49099;28.428;-16.488;2023-06-19T10:43:04;98531.13;;;25.59;60.48
63009;BME280;49099;28.428;-16.488;2023-06-19T10:45:32;98534.63;;;25.59;60.51
63009;BME280;49099;28.428;-16.488;2023-06-19T10:48:03;98539.94;;;25.52;61.51
63009;BME280;49099;28.428;-16.488;2023-06-19T10:50:42;98547.66;;;25.50;62.40
63009;BME280;49099;28.428;-16.488;2023-06-19T10:53:09;98546.88;;;25.49;62.26
63009;BME280;49099;28.428;-16.488;2023-06-19T10:55:36;98550.78;;;25.52;62.46
63009;BME280;49099;28.428;-16.488;2023-06-19T10:58:03;98555.53;;;25.55;62.18
63009;BME280;49099;28.428;-16.488;2023-06-19T11:00:33;98548.31;;;25.66;61.80
63009;BME280;49099;28.428;-16.488;2023-06-19T11:03:00;98555.47;;;25.74;61.66
63009;BME280;49099;28.428;-16.488;2023-06-19T11:05:28;98548.31;;;25.86;60.77
63009;BME280;49099;28.428;-16.488;2023-06-19T11:07:57;98549.47;;;25.85;61.71
63009;BME280;49099;28.428;-16.488;2023-06-19T11:10:26;98561.41;;;25.80;62.19
63009;BME280;49099;28.428;-16.488;2023-06-19T11:12:58;98559.06;;;25.78;62.41
63009;BME280;49099;28.428;-16.488;2023-06-19T11:15:33;98559.06;;;25.78;62.47
63009;BME280;49099;28.428;-16.488;2023-06-19T11:18:01;98549.13;;;25.90;62.19
63009;BME280;49099;28.428;-16.488;2023-06-19T11:20:29;98551.56;;;25.95;61.49
63009;BME280;49099;28.428;-16.488;2023-06-19T11:22:59;98548.94;;;26.02;61.10
63009;BME280;49099;28.428;-16.488;2023-06-19T11:25:39;98551.16;;;26.19;61.19
63009;BME280;49099;28.428;-16.488;2023-06-19T11:28:14;98548.38;;;26.38;60.36
63009;BME280;49099;28.428;-16.488;2023-06-19T11:30:41;98547.13;;;26.62;60.22
63009;BME280;49099;28.428;-16.488;2023-06-19T11:35:48;98544.03;;;26.64;61.16
63009;BME280;49099;28.428;-16.488;2023-06-19T11:38:26;98538.31;;;26.43;62.47
63009;BME280;49099;28.428;-16.488;2023-06-19T11:40:55;98539.44;;;26.15;62.72
63009;BME280;49099;28.428;-16.488;2023-06-19T11:43:28;98541.31;;;26.11;62.27
63009;BME280;49099;28.428;-16.488;2023-06-19T11:46:06;98542.38;;;26.03;62.55
63009;BME280;49099;28.428;-16.488;2023-06-19T11:48:37;98533.69;;;25.94;63.20
63009;BME280;49099;28.428;-16.488;2023-06-19T11:51:05;98536.75;;;25.69;63.98
63009;BME280;49099;28.428;-16.488;2023-06-19T11:53:32;98532.94;;;25.51;64.88
63009;BME280;49099;28.428;-16.488;2023-06-19T11:55:59;98536.53;;;25.36;65.33
63009;BME280;49099;28.428;-16.488;2023-06-19T11:58:27;98537.69;;;25.35;65.37
63009;BME280;49099;28.428;-16.488;2023-06-19T12:00:54;98528.16;;;25.21;66.02
63009;BME280;49099;28.428;-16.488;2023-06-19T12:03:23;98526.88;;;25.15;66.93
63009;BME280;49099;28.428;-16.488;2023-06-19T12:05:50;98529.28;;;25.20;65.19
63009;BME280;49099;28.428;-16.488;2023-06-19T12:08:18;98526.66;;;25.24;62.90
63009;BME280;49099;28.428;-16.488;2023-06-19T12:10:45;98526.78;;;25.31;63.81
63009;BME280;49099;28.428;-16.488;2023-06-19T12:13:12;98530.44;;;25.42;62.81
63009;BME280;49099;28.428;-16.488;2023-06-19T12:15:39;98529.97;;;25.37;61.63
63009;BME280;49099;28.428;-16.488;2023-06-19T12:18:07;98524.53;;;25.37;61.30
63009;BME280;49099;28.428;-16.488;2023-06-19T12:20:34;98526.53;;;25.40;60.63
63009;BME280;49099;28.428;-16.488;2023-06-19T12:23:02;98525.66;;;25.55;60.39
63009;BME280;49099;28.428;-16.488;2023-06-19T12:25:29;98523.06;;;25.62;58.54
63009;BME280;49099;28.428;-16.488;2023-06-19T12:27:57;98532.03;;;25.66;58.36
63009;BME280;49099;28.428;-16.488;2023-06-19T12:30:24;98527.16;;;25.75;58.15
63009;BME280;49099;28.428;-16.488;2023-06-19T12:32:52;98527.22;;;25.79;57.95
63009;BME280;49099;28.428;-16.488;2023-06-19T12:35:19;98529.47;;;25.73;58.56
63009;BME280;49099;28.428;-16.488;2023-06-19T12:37:47;98523.47;;;25.64;59.43
63009;BME280;49099;28.428;-16.488;2023-06-19T12:40:14;98530.16;;;25.70;59.33
63009;BME280;49099;28.428;-16.488;2023-06-19T12:42:41;98535.00;;;25.80;59.89
63009;BME280;49099;28.428;-16.488;2023-06-19T12:45:10;98541.03;;;25.70;60.64
63009;BME280;49099;28.428;-16.488;2023-06-19T12:47:37;98540.41;;;25.77;60.40
63009;BME280;49099;28.428;-16.488;2023-06-19T12:50:05;98543.16;;;25.80;60.82
63009;BME280;49099;28.428;-16.488;2023-06-19T12:52:32;98538.41;;;25.74;61.36